Ghaziabad Weather



Ghaziabad's Current Weather

Temprature 20.424o clear sky

clear sky

Rain: 0 %

Min Temprature20.424o
Max Temprature20.424o
Humidity70
Wind Speed1.51 m/h
Sun Rise06:41:41
Sun Set18:03:20
Current Time: 23-Feb-2019 16:44:47
Lat/Lon: 30.4, 72.76




Ghaziabad's Geo Location




Ghaziabad's Weather Forecast

Time Overall Temp Min Temp Max Temp Humidity Wind Speed Rain
23-Feb-2019 (Sat)
17:00:00 clear sky 19.850 19.850 20.424 70 1.51 m/h 0 %
20:00:00 few clouds 14.800 14.800 15.234 75 1.37 m/h 0 %
23:00:00 broken clouds 13.550 13.550 13.840 79 1.52 m/h 0 %
24-Feb-2019 (Sun)
02:00:00 broken clouds 12.690 12.690 12.835 83 1.31 m/h 0 %
05:00:00 few clouds 11.317 11.317 11.317 87 1.21 m/h 0 %
08:00:00 clear sky 12.378 12.378 12.378 84 1.31 m/h 0 %
11:00:00 clear sky 19.824 19.824 19.824 88 2.21 m/h 0 %
14:00:00 clear sky 21.431 21.431 21.431 82 2.67 m/h 0 %
17:00:00 broken clouds 20.421 20.421 20.421 69 2.3 m/h 0 %
20:00:00 light rain 17.418 17.418 17.418 72 2.16 m/h 34 %
23:00:00 light rain 12.986 12.986 12.986 91 2.96 m/h 184 %
25-Feb-2019 (Mon)
02:00:00 light rain 11.205 11.205 11.205 94 1.22 m/h 19 %
05:00:00 light rain 10.277 10.277 10.277 96 2.86 m/h 46 %
08:00:00 light rain 11.520 11.520 11.520 95 4.22 m/h 118 %
11:00:00 light rain 14.822 14.822 14.822 100 3.16 m/h 74 %
14:00:00 light rain 16.648 16.648 16.648 100 2.12 m/h 40 %
17:00:00 light rain 16.087 16.087 16.087 93 3.06 m/h 46 %
20:00:00 clear sky 13.623 13.623 13.623 93 2.56 m/h 0 %
23:00:00 scattered clouds 11.767 11.767 11.767 95 3.21 m/h 0 %
26-Feb-2019 (Tue)
02:00:00 light rain 11.151 11.151 11.151 95 3.31 m/h 5 %
05:00:00 light rain 10.972 10.972 10.972 95 3.11 m/h 8 %
08:00:00 light rain 11.132 11.132 11.132 97 2.97 m/h 6 %
11:00:00 light rain 13.342 13.342 13.342 100 3.67 m/h 4 %
14:00:00 broken clouds 15.896 15.896 15.896 93 4.31 m/h 0 %
17:00:00 light rain 15.539 15.539 15.539 84 3.81 m/h 3 %
20:00:00 light rain 13.611 13.611 13.611 84 2.22 m/h 2 %
23:00:00 light rain 12.898 12.898 12.898 87 1.57 m/h 5 %
27-Feb-2019 (Wed)
02:00:00 light rain 10.931 10.931 10.931 89 1.31 m/h 1 %
05:00:00 clear sky 9.169 9.169 9.169 90 1.75 m/h 0 %
08:00:00 clear sky 10.265 10.265 10.265 86 1.32 m/h 0 %
11:00:00 clear sky 16.395 16.395 16.395 100 2.06 m/h 0 %
14:00:00 few clouds 18.211 18.211 18.211 90 2.4 m/h 0 %
17:00:00 few clouds 17.748 17.748 17.748 72 2.91 m/h 0 %
20:00:00 few clouds 14.517 14.517 14.517 69 2.97 m/h 0 %
23:00:00 broken clouds 12.966 12.966 12.966 76 4.22 m/h 0 %
28-Feb-2019 (Thu)
02:00:00 broken clouds 12.341 12.341 12.341 82 3.16 m/h 0 %
05:00:00 broken clouds 11.613 11.613 11.613 87 2.96 m/h 0 %
08:00:00 broken clouds 12.265 12.265 12.265 87 4.36 m/h 0 %
11:00:00 overcast clouds 15.872 15.872 15.872 91 2.56 m/h 0 %
14:00:00 scattered clouds 17.254 17.254 17.254 86 3.82 m/h 0 %

Famous Cities (60)